createdAt,value
2023-02-02T00:01:50.387Z,18.09
2023-02-02T00:04:26.204Z,17.74
2023-02-02T00:06:54.985Z,18.06
2023-02-02T00:09:23.417Z,17.85
2023-02-02T00:11:51.331Z,18.17
2023-02-02T00:14:19.179Z,18.18
2023-02-02T00:16:52.263Z,18.09
2023-02-02T00:19:23.093Z,18.09
2023-02-02T00:21:51.394Z,17.55
2023-02-02T00:24:19.972Z,17.96
2023-02-02T00:26:51.062Z,18.03
2023-02-02T00:29:31.808Z,18.02
2023-02-02T00:31:59.568Z,17.93
2023-02-02T00:34:28.375Z,17.78
2023-02-02T00:36:56.291Z,17.54
2023-02-02T00:39:28.847Z,17.99
2023-02-02T00:41:57.029Z,17.89
2023-02-02T00:44:43.451Z,17.40
2023-02-02T00:47:11.687Z,17.60
2023-02-02T00:49:39.720Z,17.63
2023-02-02T00:52:07.864Z,17.95
2023-02-02T00:54:36.312Z,17.84
2023-02-02T00:57:04.238Z,17.88
2023-02-02T00:59:32.555Z,17.85
2023-02-02T01:02:02.386Z,17.78
2023-02-02T01:04:31.543Z,17.45
2023-02-02T01:06:59.263Z,17.88
2023-02-02T01:09:27.360Z,17.92
2023-02-02T01:11:55.189Z,17.86
2023-02-02T01:14:23.266Z,17.71
2023-02-02T01:16:52.098Z,17.93
2023-02-02T01:19:20.282Z,17.91
2023-02-02T01:21:48.173Z,17.68
2023-02-02T01:24:16.062Z,17.34
2023-02-02T01:26:43.849Z,17.47
2023-02-02T01:29:12.379Z,17.45
2023-02-02T01:31:40.931Z,17.97
2023-02-02T01:34:09.410Z,17.96
2023-02-02T01:36:37.650Z,17.65
2023-02-02T01:39:05.505Z,17.48
2023-02-02T01:41:33.625Z,17.40
2023-02-02T01:44:05.656Z,17.63
2023-02-02T01:46:36.095Z,17.35
2023-02-02T01:49:22.407Z,17.80
2023-02-02T01:51:58.254Z,17.80
2023-02-02T01:54:36.556Z,17.41
2023-02-02T01:57:10.155Z,17.63
2023-02-02T01:59:38.811Z,17.69
2023-02-02T02:02:07.245Z,17.36
2023-02-02T02:04:35.829Z,17.19
2023-02-02T02:07:05.887Z,17.75
2023-02-02T02:09:34.894Z,17.40
2023-02-02T02:12:02.928Z,17.09
2023-02-02T02:14:49.191Z,17.60
2023-02-02T02:17:49.560Z,17.48
2023-02-02T02:21:10.117Z,17.69
2023-02-02T02:24:15.327Z,17.67
2023-02-02T02:27:07.955Z,17.66
2023-02-02T02:29:52.112Z,17.60
2023-02-02T02:32:40.431Z,17.55
2023-02-02T02:35:27.416Z,17.59
2023-02-02T02:38:06.563Z,17.65
2023-02-02T02:40:51.922Z,17.65
2023-02-02T02:43:35.359Z,17.09
2023-02-02T02:46:04.338Z,16.94
2023-02-02T02:48:33.388Z,17.06
2023-02-02T02:51:29.534Z,17.29
2023-02-02T02:53:57.562Z,17.44
2023-02-02T02:56:38.586Z,17.52
2023-02-02T02:59:21.682Z,17.41
2023-02-02T03:02:04.838Z,16.87
2023-02-02T03:04:57.526Z,17.36
2023-02-02T03:07:51.880Z,17.27
2023-02-02T03:10:26.620Z,17.47
2023-02-02T03:12:55.703Z,17.38
2023-02-02T03:15:25.620Z,17.52
2023-02-02T03:17:54.253Z,17.23
2023-02-02T03:20:22.306Z,17.28
2023-02-02T03:22:50.387Z,17.28
2023-02-02T03:25:18.034Z,17.51
2023-02-02T03:27:45.902Z,17.10
2023-02-02T03:30:16.202Z,17.35
2023-02-02T03:32:45.446Z,17.53
2023-02-02T03:35:13.165Z,17.28
2023-02-02T03:37:41.054Z,17.49
2023-02-02T03:40:09.670Z,17.46
2023-02-02T03:42:37.379Z,17.37
2023-02-02T03:45:07.038Z,17.08
2023-02-02T03:47:37.894Z,17.21
2023-02-02T03:50:09.940Z,17.25
2023-02-02T03:52:38.032Z,17.34
2023-02-02T03:55:06.748Z,17.18
2023-02-02T03:57:36.138Z,17.33
2023-02-02T04:00:06.125Z,16.62
2023-02-02T04:02:43.412Z,17.01
2023-02-02T04:05:11.051Z,17.10
2023-02-02T04:07:38.917Z,16.76
2023-02-02T04:10:07.211Z,17.12
2023-02-02T04:12:36.339Z,17.59
2023-02-02T04:15:04.502Z,17.42
2023-02-02T04:17:32.444Z,17.55
2023-02-02T04:20:00.179Z,17.43
2023-02-02T04:22:27.983Z,17.51
2023-02-02T04:24:55.789Z,17.38
2023-02-02T04:27:23.593Z,17.67
2023-02-02T04:29:51.389Z,17.59
2023-02-02T04:32:19.158Z,17.53
2023-02-02T04:34:48.293Z,17.43
2023-02-02T04:37:15.956Z,17.68
2023-02-02T04:39:43.799Z,17.27
2023-02-02T04:42:11.550Z,17.44
2023-02-02T04:44:39.883Z,17.15
2023-02-02T04:47:07.674Z,17.52
2023-02-02T04:49:41.058Z,17.45
2023-02-02T04:52:11.105Z,17.51
2023-02-02T04:54:39.256Z,17.11
2023-02-02T04:57:07.038Z,16.90
2023-02-02T04:59:34.849Z,17.43
2023-02-02T05:02:02.940Z,17.36
2023-02-02T05:04:30.797Z,17.60
2023-02-02T05:06:58.530Z,17.10
2023-02-02T05:09:26.690Z,17.23
2023-02-02T05:11:54.527Z,16.90
2023-02-02T05:14:22.436Z,17.23
2023-02-02T05:16:51.071Z,17.09
2023-02-02T05:19:18.807Z,17.37
2023-02-02T05:21:50.653Z,17.46
2023-02-02T05:24:18.831Z,17.67
2023-02-02T05:26:47.226Z,17.65
2023-02-02T05:29:15.311Z,17.62
2023-02-02T05:31:42.985Z,17.42
2023-02-02T05:34:11.825Z,17.69
2023-02-02T05:36:39.658Z,17.64
2023-02-02T05:39:07.483Z,17.59
2023-02-02T05:41:35.555Z,17.42
2023-02-02T05:44:04.700Z,17.26
2023-02-02T05:46:32.523Z,17.57
2023-02-02T05:49:00.429Z,17.04
2023-02-02T05:51:32.126Z,17.32
2023-02-02T05:54:01.094Z,17.54
2023-02-02T05:56:28.945Z,17.03
2023-02-02T05:58:56.815Z,17.05
2023-02-02T06:01:24.709Z,17.23
2023-02-02T06:03:52.587Z,17.12
2023-02-02T06:06:20.572Z,17.04
2023-02-02T06:08:48.394Z,16.58
2023-02-02T06:11:18.981Z,17.22
2023-02-02T06:13:47.035Z,17.39
2023-02-02T06:16:15.062Z,16.48
2023-02-02T06:18:43.114Z,17.12
2023-02-02T06:21:11.860Z,16.89
2023-02-02T06:23:45.711Z,16.35
2023-02-02T06:26:14.454Z,17.33
2023-02-02T06:28:43.483Z,17.37
2023-02-02T06:31:12.103Z,17.21
2023-02-02T06:33:40.290Z,17.31
2023-02-02T06:36:08.164Z,16.99
2023-02-02T06:38:36.051Z,16.77
2023-02-02T06:41:07.176Z,17.38
2023-02-02T06:43:35.063Z,16.95
2023-02-02T06:46:03.022Z,17.05
2023-02-02T06:48:31.940Z,16.74
2023-02-02T06:51:00.434Z,17.40
2023-02-02T06:53:28.298Z,17.35
2023-02-02T06:55:57.699Z,17.45
2023-02-02T06:58:27.914Z,16.97
2023-02-02T07:00:56.121Z,16.93
2023-02-02T07:03:23.939Z,17.43
2023-02-02T07:05:51.669Z,16.60
2023-02-02T07:08:19.891Z,17.47
2023-02-02T07:11:13.924Z,17.29
2023-02-02T07:13:36.117Z,17.44
2023-02-02T07:16:05.076Z,17.40
2023-02-02T07:18:32.841Z,16.97
2023-02-02T07:21:01.663Z,17.05
2023-02-02T07:23:31.076Z,17.31
2023-02-02T07:26:08.004Z,17.39
2023-02-02T07:28:36.531Z,17.40
2023-02-02T07:31:17.877Z,17.34
2023-02-02T07:33:46.867Z,17.28
2023-02-02T07:36:17.204Z,17.33
2023-02-02T07:38:47.543Z,16.91
2023-02-02T07:41:16.052Z,17.14
2023-02-02T07:43:47.784Z,17.18
2023-02-02T07:46:17.550Z,17.24
2023-02-02T07:48:45.636Z,17.28
2023-02-02T07:51:18.509Z,17.17
2023-02-02T07:53:48.856Z,17.04
2023-02-02T07:56:22.314Z,17.23
2023-02-02T07:58:53.519Z,17.26
2023-02-02T08:01:23.283Z,17.51
2023-02-02T08:03:51.784Z,17.55
2023-02-02T08:06:28.530Z,17.56
2023-02-02T08:08:56.453Z,17.59
2023-02-02T08:11:26.171Z,17.54
2023-02-02T08:13:58.473Z,17.69
2023-02-02T08:16:30.299Z,17.39
2023-02-02T08:18:58.699Z,17.41
2023-02-02T08:21:27.066Z,17.63
2023-02-02T08:23:55.320Z,17.68
2023-02-02T08:26:28.255Z,17.73
2023-02-02T08:29:01.593Z,17.63
2023-02-02T08:31:36.256Z,17.74
2023-02-02T08:34:05.280Z,17.76
2023-02-02T08:36:35.630Z,17.29
2023-02-02T08:39:10.735Z,17.00
2023-02-02T08:41:39.046Z,17.72
2023-02-02T08:44:13.234Z,17.75
2023-02-02T08:46:42.299Z,17.06
2023-02-02T08:49:13.900Z,16.94
2023-02-02T08:51:42.175Z,17.77
2023-02-02T08:54:10.393Z,17.34
2023-02-02T08:56:39.139Z,17.59
2023-02-02T08:59:07.933Z,17.78
2023-02-02T09:01:36.199Z,17.50
2023-02-02T09:04:07.625Z,17.80
2023-02-02T09:06:38.150Z,17.76
2023-02-02T09:09:08.182Z,17.08
2023-02-02T09:11:36.335Z,17.83
2023-02-02T09:14:06.733Z,17.45
2023-02-02T09:16:36.138Z,17.54
2023-02-02T09:19:05.279Z,17.92
2023-02-02T09:21:37.394Z,17.93
2023-02-02T09:24:10.477Z,17.94
2023-02-02T09:26:40.768Z,17.61
2023-02-02T09:29:13.295Z,17.96
2023-02-02T09:31:41.871Z,17.63
2023-02-02T09:34:13.464Z,17.72
2023-02-02T09:36:42.633Z,17.91
2023-02-02T09:39:15.326Z,17.27
2023-02-02T09:42:05.016Z,17.89
2023-02-02T09:45:00.205Z,17.89
2023-02-02T09:47:55.549Z,17.93
2023-02-02T09:50:35.726Z,17.96
2023-02-02T09:53:14.844Z,17.90
2023-02-02T09:55:46.711Z,17.89
2023-02-02T09:58:19.242Z,17.79
2023-02-02T10:01:13.885Z,18.06
2023-02-02T10:04:05.669Z,18.10
2023-02-02T10:06:42.591Z,17.74
2023-02-02T10:09:35.229Z,18.11
2023-02-02T10:12:21.943Z,18.10
2023-02-02T10:14:59.226Z,17.84
2023-02-02T10:17:43.918Z,18.15
2023-02-02T10:20:30.894Z,17.99
2023-02-02T10:23:06.956Z,17.94
2023-02-02T10:25:35.908Z,18.04
2023-02-02T10:28:11.505Z,17.54
2023-02-02T10:30:46.063Z,18.28
2023-02-02T10:33:39.057Z,18.27
2023-02-02T10:36:07.667Z,18.24
2023-02-02T10:38:53.373Z,17.86
2023-02-02T10:41:30.505Z,18.24
2023-02-02T10:44:23.695Z,18.25
2023-02-02T10:46:55.872Z,17.97
2023-02-02T10:49:32.660Z,18.26
2023-02-02T10:52:31.510Z,18.26
2023-02-02T10:55:04.565Z,18.28
2023-02-02T10:57:58.175Z,18.31
2023-02-02T11:00:42.424Z,18.34
2023-02-02T11:03:13.560Z,17.94
2023-02-02T11:06:00.409Z,17.86
2023-02-02T11:08:36.624Z,18.43
2023-02-02T11:11:20.278Z,18.10
2023-02-02T11:13:48.347Z,18.45
2023-02-02T11:16:16.036Z,18.47
2023-02-02T11:18:46.100Z,18.10
2023-02-02T11:21:32.753Z,18.57
2023-02-02T11:24:06.854Z,18.10
2023-02-02T11:27:27.216Z,18.53
2023-02-02T11:29:59.324Z,18.64
2023-02-02T11:32:30.905Z,18.68
2023-02-02T11:35:04.891Z,18.73
2023-02-02T11:37:35.359Z,18.33
2023-02-02T11:40:22.791Z,18.77
2023-02-02T11:42:52.865Z,18.75
2023-02-02T11:45:35.722Z,18.72
2023-02-02T11:48:16.840Z,18.95
2023-02-02T11:50:53.997Z,18.99
2023-02-02T11:53:24.841Z,19.00
2023-02-02T11:55:54.375Z,18.39
2023-02-02T11:58:30.656Z,18.95
2023-02-02T12:01:01.891Z,18.08
2023-02-02T12:03:31.817Z,18.97
2023-02-02T12:06:04.890Z,18.95
2023-02-02T12:08:32.770Z,18.98
2023-02-02T12:11:03.607Z,18.77
2023-02-02T12:13:57.734Z,18.93
2023-02-02T12:16:34.371Z,18.82
2023-02-02T12:19:21.033Z,19.22
2023-02-02T12:21:58.813Z,19.38
2023-02-02T12:24:44.312Z,19.39
2023-02-02T12:27:39.943Z,19.58
2023-02-02T12:30:41.197Z,19.61
2023-02-02T12:33:44.328Z,19.02
2023-02-02T12:36:33.944Z,19.54
2023-02-02T12:39:09.111Z,19.14
2023-02-02T12:42:07.765Z,19.51
2023-02-02T12:45:10.937Z,19.71
2023-02-02T12:48:02.312Z,19.69
2023-02-02T12:50:54.714Z,19.97
2023-02-02T12:54:34.185Z,20.03
2023-02-02T12:57:01.046Z,20.07
2023-02-02T12:59:42.206Z,19.82
2023-02-02T13:02:18.928Z,20.12
2023-02-02T13:07:57.076Z,19.79
2023-02-02T13:10:32.553Z,20.15
2023-02-02T13:13:29.338Z,20.19
2023-02-02T13:16:08.113Z,19.93
2023-02-02T13:18:52.090Z,20.14
2023-02-02T13:21:24.003Z,19.87
2023-02-02T13:23:56.452Z,20.30
2023-02-02T13:26:35.670Z,20.31
2023-02-02T13:29:09.517Z,20.32
2023-02-02T13:31:47.049Z,20.34
2023-02-02T13:34:30.580Z,20.30
2023-02-02T13:37:20.213Z,19.92
2023-02-02T13:39:55.306Z,20.13
2023-02-02T13:42:40.712Z,19.92
2023-02-02T13:45:25.166Z,20.09
2023-02-02T13:48:00.562Z,20.21
2023-02-02T13:50:31.092Z,20.32
2023-02-02T13:53:17.392Z,20.41
2023-02-02T13:56:08.387Z,20.39
2023-02-02T13:59:01.582Z,20.47
2023-02-02T14:01:32.437Z,20.48
2023-02-02T14:04:01.073Z,20.21
2023-02-02T14:06:31.044Z,20.44
2023-02-02T14:09:05.686Z,20.25
2023-02-02T14:11:43.198Z,20.23
2023-02-02T14:14:32.305Z,20.23
2023-02-02T14:17:01.167Z,20.38
2023-02-02T14:19:30.587Z,20.30
2023-02-02T14:21:59.925Z,20.25
2023-02-02T14:24:27.632Z,20.21
2023-02-02T14:26:58.571Z,19.76
2023-02-02T14:29:33.030Z,20.21
2023-02-02T14:32:15.801Z,20.24
2023-02-02T14:34:45.005Z,20.25
2023-02-02T14:37:37.759Z,19.87
2023-02-02T14:40:06.722Z,20.26
2023-02-02T14:42:55.743Z,20.27
2023-02-02T14:45:27.189Z,20.27
2023-02-02T14:48:02.589Z,20.18
2023-02-02T14:50:57.923Z,20.06
2023-02-02T14:53:33.819Z,20.27
2023-02-02T14:56:18.553Z,20.08
2023-02-02T14:59:00.212Z,20.25
2023-02-02T15:01:37.643Z,19.89
2023-02-02T15:04:18.532Z,20.27
2023-02-02T15:06:47.248Z,20.19
2023-02-02T15:09:22.475Z,20.28
2023-02-02T15:12:01.201Z,20.25
2023-02-02T15:14:53.299Z,19.64
2023-02-02T15:17:30.269Z,20.23
2023-02-02T15:20:20.904Z,20.21
2023-02-02T15:22:48.688Z,20.18
2023-02-02T15:25:54.276Z,20.11
2023-02-02T15:28:25.553Z,19.97
2023-02-02T15:30:58.699Z,19.71
2023-02-02T15:33:44.015Z,19.44
2023-02-02T15:36:16.875Z,19.63
2023-02-02T15:38:46.714Z,19.65
2023-02-02T15:41:27.969Z,19.38
2023-02-02T15:43:55.699Z,19.13
2023-02-02T15:46:32.520Z,19.37
2023-02-02T15:49:33.205Z,19.48
2023-02-02T15:52:11.080Z,19.49
2023-02-02T15:54:38.848Z,18.86
2023-02-02T15:57:32.983Z,19.29
2023-02-02T16:00:21.528Z,19.51
2023-02-02T16:03:01.511Z,19.53
2023-02-02T16:05:32.237Z,19.55
2023-02-02T16:08:05.921Z,18.91
2023-02-02T16:10:35.462Z,18.99
2023-02-02T16:13:03.827Z,19.04
2023-02-02T16:15:33.029Z,19.34
2023-02-02T16:18:15.518Z,19.10
2023-02-02T16:20:44.856Z,19.27
2023-02-02T16:23:16.075Z,18.18
2023-02-02T16:25:51.621Z,19.41
2023-02-02T16:28:22.328Z,19.33
2023-02-02T16:30:51.898Z,19.07
2023-02-02T16:33:36.833Z,19.42
2023-02-02T16:36:29.794Z,19.36
2023-02-02T16:39:01.110Z,19.01
2023-02-02T16:41:34.788Z,19.16
2023-02-02T16:44:39.909Z,19.43
2023-02-02T16:47:30.481Z,19.07
2023-02-02T16:50:11.474Z,19.48
2023-02-02T16:52:54.101Z,19.55
2023-02-02T16:55:23.839Z,19.59
2023-02-02T16:57:52.479Z,19.44
2023-02-02T17:00:27.068Z,19.21
2023-02-02T17:03:10.339Z,19.15
2023-02-02T17:05:54.222Z,19.51
2023-02-02T17:08:31.554Z,19.53
2023-02-02T17:11:04.135Z,19.52
2023-02-02T17:13:32.433Z,19.49
2023-02-02T17:16:00.853Z,19.35
2023-02-02T17:18:28.725Z,19.22
2023-02-02T17:20:58.427Z,19.44
2023-02-02T17:23:28.769Z,19.36
2023-02-02T17:25:57.096Z,19.33
2023-02-02T17:28:26.710Z,19.23
2023-02-02T17:31:04.036Z,19.10
2023-02-02T17:33:35.428Z,19.53
2023-02-02T17:36:04.823Z,19.41
2023-02-02T17:38:33.147Z,19.56
2023-02-02T17:41:02.660Z,19.53
2023-02-02T17:43:33.043Z,19.52
2023-02-02T17:46:00.819Z,19.28
2023-02-02T17:48:28.797Z,19.37
2023-02-02T17:50:56.575Z,19.50
2023-02-02T17:53:24.382Z,19.40
2023-02-02T17:55:52.516Z,19.42
2023-02-02T17:58:20.520Z,19.45
2023-02-02T18:00:54.058Z,18.99
2023-02-02T18:03:33.724Z,19.44
2023-02-02T18:06:03.094Z,18.70
2023-02-02T18:08:33.171Z,19.41
2023-02-02T18:11:01.654Z,19.17
2023-02-02T18:13:29.365Z,18.85
2023-02-02T18:15:59.981Z,19.28
2023-02-02T18:18:29.847Z,19.43
2023-02-02T18:20:59.115Z,19.46
2023-02-02T18:23:27.057Z,19.51
2023-02-02T18:25:54.880Z,19.51
2023-02-02T18:28:22.637Z,19.40
2023-02-02T18:30:50.448Z,19.35
2023-02-02T18:33:20.171Z,19.52
2023-02-02T18:35:48.473Z,19.52
2023-02-02T18:38:16.398Z,19.34
2023-02-02T18:40:44.246Z,19.44
2023-02-02T18:43:12.186Z,19.16
2023-02-02T18:45:39.836Z,19.32
2023-02-02T18:48:07.645Z,19.25
2023-02-02T18:50:36.182Z,19.51
2023-02-02T18:53:04.157Z,19.41
2023-02-02T18:55:32.181Z,19.39
2023-02-02T18:58:01.317Z,19.28
2023-02-02T19:00:29.274Z,19.59
2023-02-02T19:02:57.069Z,19.63
2023-02-02T19:05:44.170Z,19.56
2023-02-02T19:08:12.499Z,19.68
2023-02-02T19:10:40.313Z,19.27
2023-02-02T19:13:19.846Z,19.78
2023-02-02T19:15:49.495Z,19.57
2023-02-02T19:18:21.594Z,19.69
2023-02-02T19:20:50.852Z,19.23
2023-02-02T19:23:24.365Z,19.58
2023-02-02T19:25:56.474Z,19.39
2023-02-02T19:28:29.110Z,19.55
2023-02-02T19:30:59.698Z,19.06
2023-02-02T19:33:48.031Z,19.54
2023-02-02T19:36:21.313Z,19.39
2023-02-02T19:38:52.471Z,19.55
2023-02-02T19:41:24.366Z,18.96
2023-02-02T19:43:58.455Z,19.13
2023-02-02T19:46:28.047Z,19.47
2023-02-02T19:49:28.595Z,19.27
2023-02-02T19:51:58.505Z,19.46
2023-02-02T19:54:41.246Z,19.41
2023-02-02T19:57:21.956Z,19.38
2023-02-02T19:59:52.811Z,19.13
2023-02-02T20:02:43.774Z,19.35
2023-02-02T20:05:11.744Z,19.33
2023-02-02T20:07:40.788Z,19.21
2023-02-02T20:10:23.990Z,19.30
2023-02-02T20:12:55.644Z,18.89
2023-02-02T20:15:34.221Z,19.28
2023-02-02T20:18:12.801Z,19.25
2023-02-02T20:20:44.167Z,19.22
2023-02-02T20:23:44.438Z,19.22
2023-02-02T20:26:14.525Z,19.18
2023-02-02T20:28:45.468Z,18.83
2023-02-02T20:31:17.996Z,19.18
2023-02-02T20:33:52.219Z,19.07
2023-02-02T20:36:42.607Z,19.04
2023-02-02T20:39:36.869Z,19.14
2023-02-02T20:42:04.982Z,18.95
2023-02-02T20:44:35.740Z,19.12
2023-02-02T20:47:05.145Z,19.14
2023-02-02T20:49:33.182Z,19.15
2023-02-02T20:52:05.031Z,18.98
2023-02-02T20:54:34.406Z,19.13
2023-02-02T20:57:05.848Z,18.21
2023-02-02T20:59:33.683Z,18.84
2023-02-02T21:02:02.171Z,19.08
2023-02-02T21:04:31.672Z,19.10
2023-02-02T21:07:00.182Z,19.13
2023-02-02T21:09:27.948Z,19.11
2023-02-02T21:11:56.180Z,18.98
2023-02-02T21:14:23.936Z,18.79
2023-02-02T21:16:57.273Z,19.05
2023-02-02T21:19:29.992Z,18.65
2023-02-02T21:21:57.791Z,18.79
2023-02-02T21:24:25.793Z,18.80
2023-02-02T21:26:54.107Z,18.91
2023-02-02T21:29:23.894Z,18.65
2023-02-02T21:31:52.582Z,18.89
2023-02-02T21:34:21.326Z,19.01
2023-02-02T21:36:50.900Z,18.99
2023-02-02T21:39:36.032Z,18.98
2023-02-02T21:42:22.554Z,18.92
2023-02-02T21:44:57.258Z,18.89
2023-02-02T21:47:38.453Z,18.88
2023-02-02T21:50:24.658Z,18.87
2023-02-02T21:53:25.760Z,18.84
2023-02-02T21:55:59.986Z,18.53
2023-02-02T21:58:40.404Z,18.85
2023-02-02T22:01:24.659Z,18.94
2023-02-02T22:03:52.801Z,18.67
2023-02-02T22:06:43.093Z,18.72
2023-02-02T22:09:13.890Z,19.06
2023-02-02T22:11:59.362Z,18.98
2023-02-02T22:14:39.111Z,19.00
2023-02-02T22:17:22.550Z,18.91
2023-02-02T22:19:55.166Z,18.84
2023-02-02T22:22:25.889Z,18.60
2023-02-02T22:25:03.993Z,18.84
2023-02-02T22:27:42.271Z,18.72
2023-02-02T22:30:26.053Z,18.79
2023-02-02T22:32:55.949Z,18.40
2023-02-02T22:35:25.144Z,18.34
2023-02-02T22:37:53.355Z,18.60
2023-02-02T22:40:22.854Z,18.43
2023-02-02T22:42:51.980Z,18.60
2023-02-02T22:45:20.054Z,18.42
2023-02-02T22:47:48.537Z,18.41
2023-02-02T22:50:22.437Z,18.56
2023-02-02T22:52:50.994Z,18.59
2023-02-02T22:55:20.197Z,18.54
2023-02-02T22:57:48.194Z,18.50
2023-02-02T23:00:21.274Z,18.37
2023-02-02T23:02:49.490Z,18.16
2023-02-02T23:05:21.743Z,18.34
2023-02-02T23:07:49.940Z,18.44
2023-02-02T23:10:20.313Z,18.47
2023-02-02T23:12:48.573Z,18.43
2023-02-02T23:15:16.431Z,18.23
2023-02-02T23:17:46.318Z,18.27
2023-02-02T23:20:16.023Z,18.00
2023-02-02T23:22:44.098Z,17.60
2023-02-02T23:25:13.971Z,17.91
2023-02-02T23:27:42.192Z,18.32
2023-02-02T23:30:11.747Z,18.26
2023-02-02T23:32:40.175Z,18.01
2023-02-02T23:35:10.408Z,18.27
2023-02-02T23:37:38.711Z,18.39
2023-02-02T23:40:11.273Z,18.42
2023-02-02T23:42:39.166Z,18.44
2023-02-02T23:45:07.298Z,18.44
2023-02-02T23:47:35.413Z,18.48
2023-02-02T23:50:06.960Z,18.19
2023-02-02T23:52:36.037Z,18.39
2023-02-02T23:55:04.938Z,18.47
2023-02-02T23:57:33.940Z,18.47
